Lincoln Park, Michigan
Current Conditions -  °F | °C
As of 8:53 PM on Friday 24 Oct 2014 (Local Time) from KDTW Reporting Station
Overcast Overcast  
Wind Chill: 56°   Ceiling: 4500
Heat Index: 56°   Visibility: 9mi
Dew Point: 46°   Wind: 10mph
Humidity: 69%   Direction: 220°SW
Pressure: 30"   Gusts: NA
Location:  42.25°N, 83.18°W
Report Text: KDTW 250053Z 22009KT 9SM OVC045 13/08 A3000 RMK AO2 SLP159 T01330078
Loading
Personal Weather Stations






























Interactive Weather Map
Tropical Storm Tracking
New forecast layout! Learn more

10-Day Weather Forecast

Advertisements
Track Severe Weather on mobile